Time;durP1;ratioP1;P1;durP2;ratioP2;P2;SDS_P1;SDS_P2;PMS_P1;PMS_P2;Temp;Humidity;BMP_temperature;BMP_pressure;BME280_temperature;BME280_humidity;BME280_pressure;Samples;Min_cycle;Max_cycle;Signal;HPM_P1;HPM_P2
2023/12/24 00:01:43;;;;;;;0.30;0.30;;;2.60;99.90;;;;;;5023770;28;20187;-87
2023/12/24 00:04:09;;;;;;;0.40;0.40;;;2.60;99.90;;;;;;5032151;28;20216;-87
2023/12/24 00:06:34;;;;;;;0.40;0.40;;;2.50;99.90;;;;;;5030403;28;21214;-87
2023/12/24 00:09:00;;;;;;;0.30;0.30;;;2.60;99.90;;;;;;5029342;28;20270;-87
2023/12/24 00:11:25;;;;;;;0.30;0.30;;;2.50;99.90;;;;;;5017589;28;20214;-87
2023/12/24 00:13:51;;;;;;;0.40;0.40;;;2.50;99.90;;;;;;5042632;28;20502;-87
2023/12/24 00:16:17;;;;;;;0.37;0.37;;;2.50;99.90;;;;;;5012252;28;20196;-87
2023/12/24 00:18:42;;;;;;;0.30;0.30;;;2.50;99.90;;;;;;5027548;28;20195;-87
2023/12/24 00:21:08;;;;;;;0.30;0.30;;;2.50;99.90;;;;;;5028894;28;20281;-87
2023/12/24 00:23:33;;;;;;;0.40;0.40;;;2.40;99.90;;;;;;5029403;28;20214;-86
2023/12/24 00:25:59;;;;;;;0.40;0.40;;;2.40;99.90;;;;;;5030066;28;20205;-87
2023/12/24 00:28:24;;;;;;;0.30;0.30;;;2.50;99.90;;;;;;5037525;28;20194;-87
2023/12/24 00:30:50;;;;;;;0.30;0.30;;;2.40;99.90;;;;;;5042191;28;20187;-87
2023/12/24 00:33:15;;;;;;;0.40;0.40;;;2.40;99.90;;;;;;5038056;28;21449;-87
2023/12/24 00:35:41;;;;;;;0.30;0.30;;;2.40;99.90;;;;;;5033976;28;20237;-87
2023/12/24 00:38:06;;;;;;;0.40;0.40;;;2.40;99.90;;;;;;5035792;28;20194;-87
2023/12/24 00:40:33;;;;;;;0.20;0.20;;;2.30;99.90;;;;;;5042983;28;20240;-87
2023/12/24 00:42:58;;;;;;;0.30;0.30;;;2.30;99.90;;;;;;5051632;28;20666;-86
2023/12/24 00:45:24;;;;;;;0.30;0.30;;;2.30;99.90;;;;;;5031249;28;20473;-86
2023/12/24 00:47:50;;;;;;;0.30;0.30;;;2.20;99.90;;;;;;5039354;28;20214;-86
2023/12/24 00:50:16;;;;;;;0.40;0.40;;;2.20;99.90;;;;;;5045618;28;20617;-86
2023/12/24 00:52:41;;;;;;;0.30;0.30;;;2.30;99.90;;;;;;5034394;28;20412;-86
2023/12/24 00:55:07;;;;;;;0.30;0.30;;;2.30;99.90;;;;;;5014569;28;20509;-86
2023/12/24 00:57:33;;;;;;;0.30;0.30;;;2.20;99.90;;;;;;5049012;28;20229;-87
2023/12/24 00:59:58;;;;;;;0.30;0.30;;;2.20;99.90;;;;;;5050903;28;20167;-86
2023/12/24 01:02:24;;;;;;;0.30;0.30;;;2.20;99.90;;;;;;5034314;28;20142;-85
2023/12/24 01:04:49;;;;;;;0.30;0.30;;;2.20;99.90;;;;;;5046445;28;20223;-86
2023/12/24 01:07:16;;;;;;;0.30;0.30;;;2.10;99.90;;;;;;5048513;28;20192;-86
2023/12/24 01:09:41;;;;;;;0.30;0.30;;;2.10;99.90;;;;;;5052057;28;20182;-86
2023/12/24 01:12:07;;;;;;;0.30;0.30;;;2.10;99.90;;;;;;5021926;28;20425;-86
2023/12/24 01:14:32;;;;;;;0.37;0.37;;;2.10;99.90;;;;;;5043224;28;20557;-86
2023/12/24 01:16:59;;;;;;;0.40;0.40;;;2.10;99.90;;;;;;5034138;28;20246;-86
2023/12/24 01:19:25;;;;;;;0.20;0.20;;;2.10;99.90;;;;;;5015437;28;20184;-87
2023/12/24 01:21:54;;;;;;;0.40;0.40;;;2.10;99.90;;;;;;5046856;28;20461;-86
2023/12/24 01:24:19;;;;;;;0.40;0.40;;;2.10;99.90;;;;;;5051378;28;20211;-86
2023/12/24 01:26:45;;;;;;;0.30;0.30;;;2.10;99.90;;;;;;5019697;28;20448;-86
2023/12/24 01:29:10;;;;;;;0.20;0.20;;;2.10;99.90;;;;;;5052319;28;20736;-86
2023/12/24 01:31:38;;;;;;;0.30;0.30;;;2.10;99.90;;;;;;5026341;28;20631;-86
2023/12/24 01:34:03;;;;;;;0.30;0.30;;;2.10;99.90;;;;;;5041966;28;20183;-86
2023/12/24 01:36:29;;;;;;;0.20;0.20;;;2.20;99.90;;;;;;5014744;28;20433;-86
2023/12/24 01:38:55;;;;;;;0.40;0.40;;;2.10;99.90;;;;;;5014935;28;20443;-86
2023/12/24 01:41:20;;;;;;;0.30;0.30;;;2.10;99.90;;;;;;5012746;28;20652;-86
2023/12/24 01:43:46;;;;;;;0.40;0.40;;;2.10;99.90;;;;;;5029411;28;20215;-86
2023/12/24 01:46:16;;;;;;;0.30;0.30;;;2.10;99.90;;;;;;5032948;28;20546;-85
2023/12/24 01:48:42;;;;;;;0.30;0.30;;;2.10;99.90;;;;;;5038698;28;20422;-86
2023/12/24 01:51:09;;;;;;;0.40;0.40;;;2.10;99.90;;;;;;5041160;28;21218;-86
2023/12/24 01:53:35;;;;;;;0.30;0.30;;;2.10;99.90;;;;;;5029138;28;21037;-86
2023/12/24 01:56:05;;;;;;;0.40;0.40;;;2.10;99.90;;;;;;5037941;28;20440;-86
2023/12/24 01:58:31;;;;;;;0.40;0.40;;;2.10;99.90;;;;;;5032270;28;20264;-86
2023/12/24 02:00:58;;;;;;;0.20;0.20;;;2.10;99.90;;;;;;5038267;28;20509;-86
2023/12/24 02:03:24;;;;;;;0.30;0.30;;;2.10;99.90;;;;;;5031930;28;20546;-86
2023/12/24 02:05:50;;;;;;;0.40;0.40;;;2.10;99.90;;;;;;5027260;28;20533;-86
2023/12/24 02:08:21;;;;;;;0.30;0.30;;;2.10;99.90;;;;;;5010694;28;20190;-86
2023/12/24 02:10:47;;;;;;;0.40;0.40;;;2.10;99.90;;;;;;5036861;28;20922;-86
2023/12/24 02:13:14;;;;;;;0.30;0.30;;;2.10;99.90;;;;;;5035112;28;20445;-86
2023/12/24 02:15:39;;;;;;;0.30;0.30;;;2.10;99.90;;;;;;5042202;28;20414;-86
2023/12/24 02:18:07;;;;;;;0.30;0.30;;;2.10;99.90;;;;;;5044413;28;20490;-86
2023/12/24 02:20:32;;;;;;;0.40;0.40;;;2.10;99.90;;;;;;5036754;28;20223;-86
2023/12/24 02:22:58;;;;;;;0.40;0.40;;;2.10;99.90;;;;;;5010661;28;20431;-86
2023/12/24 02:25:26;;;;;;;0.40;0.40;;;2.10;99.90;;;;;;5036102;28;20768;-86
2023/12/24 02:28:09;;;;;;;0.30;0.30;;;2.10;99.90;;;;;;5038870;28;20519;-86
2023/12/24 02:30:40;;;;;;;0.30;0.30;;;2.10;99.90;;;;;;5043610;28;20486;-86
2023/12/24 02:33:07;;;;;;;0.30;0.30;;;2.20;99.90;;;;;;5031559;28;20445;-86
2023/12/24 02:35:37;;;;;;;0.30;0.30;;;2.20;99.90;;;;;;5028642;28;21246;-84
2023/12/24 02:38:02;;;;;;;0.33;0.33;;;2.20;99.90;;;;;;5031128;28;20797;-86
2023/12/24 02:40:28;;;;;;;0.30;0.30;;;2.20;99.90;;;;;;5023503;28;21010;-86
2023/12/24 02:42:53;;;;;;;0.30;0.30;;;2.20;99.90;;;;;;5010844;28;20194;-86
2023/12/24 02:45:19;;;;;;;0.30;0.30;;;2.20;99.90;;;;;;5014761;28;20216;-86
2023/12/24 02:47:44;;;;;;;0.30;0.30;;;2.20;99.90;;;;;;5045715;28;20190;-86
2023/12/24 02:50:10;;;;;;;0.30;0.30;;;2.20;99.90;;;;;;5022377;28;20192;-85
2023/12/24 02:52:35;;;;;;;0.30;0.30;;;2.20;99.90;;;;;;5035820;28;20273;-86
2023/12/24 02:55:01;;;;;;;0.30;0.30;;;2.20;99.90;;;;;;5030188;28;20193;-85
2023/12/24 02:57:27;;;;;;;0.30;0.30;;;2.30;99.90;;;;;;5010652;28;20196;-86
2023/12/24 02:59:52;;;;;;;0.30;0.30;;;2.30;99.90;;;;;;5029994;28;20737;-86
2023/12/24 03:02:18;;;;;;;0.40;0.40;;;2.40;99.90;;;;;;5000252;28;20278;-86
2023/12/24 03:04:43;;;;;;;0.30;0.30;;;2.40;99.90;;;;;;5009757;28;20224;-86
2023/12/24 03:07:09;;;;;;;0.30;0.30;;;2.40;99.90;;;;;;5030365;28;20628;-86
2023/12/24 03:09:34;;;;;;;0.30;0.30;;;2.40;99.90;;;;;;5045185;28;20193;-86
2023/12/24 03:12:01;;;;;;;0.30;0.30;;;2.50;99.90;;;;;;5036785;28;20656;-86
2023/12/24 03:14:27;;;;;;;0.20;0.20;;;2.50;99.90;;;;;;5025498;28;20180;-86
2023/12/24 03:16:54;;;;;;;0.30;0.30;;;2.60;99.90;;;;;;5038372;28;20460;-86
2023/12/24 03:19:20;;;;;;;0.30;0.30;;;2.60;99.90;;;;;;5030490;28;20186;-86
2023/12/24 03:21:46;;;;;;;0.30;0.30;;;2.60;99.90;;;;;;5027689;28;20511;-86
2023/12/24 03:24:11;;;;;;;0.30;0.30;;;2.70;99.90;;;;;;5046149;28;20214;-86
2023/12/24 03:26:37;;;;;;;0.20;0.20;;;2.70;99.90;;;;;;5034882;28;20183;-86
2023/12/24 03:29:02;;;;;;;0.20;0.20;;;2.80;99.90;;;;;;5045212;28;20666;-87
2023/12/24 03:31:28;;;;;;;0.30;0.30;;;2.80;99.90;;;;;;5042746;28;20524;-87
2023/12/24 03:33:54;;;;;;;0.20;0.20;;;2.90;99.90;;;;;;5039228;28;20334;-86
2023/12/24 03:36:19;;;;;;;0.30;0.30;;;2.90;99.90;;;;;;5012044;28;20203;-86
2023/12/24 03:38:45;;;;;;;0.20;0.20;;;3.00;99.90;;;;;;5025713;28;20687;-86
2023/12/24 03:41:11;;;;;;;0.20;0.20;;;3.00;99.90;;;;;;5029626;28;20188;-86
2023/12/24 03:43:36;;;;;;;0.30;0.30;;;3.00;99.90;;;;;;5011532;28;20215;-86
2023/12/24 03:46:02;;;;;;;0.20;0.20;;;3.10;99.90;;;;;;5021804;28;20188;-86
2023/12/24 03:48:29;;;;;;;0.20;0.20;;;3.10;99.90;;;;;;5029732;28;20191;-86
2023/12/24 03:50:55;;;;;;;0.20;0.20;;;3.20;99.90;;;;;;5031999;28;21200;-86
2023/12/24 03:53:20;;;;;;;0.20;0.20;;;3.20;99.90;;;;;;5010450;28;20450;-86
2023/12/24 03:55:46;;;;;;;0.20;0.20;;;3.30;99.90;;;;;;5011809;28;20709;-86
2023/12/24 03:58:11;;;;;;;0.20;0.20;;;3.30;99.90;;;;;;5010283;28;20247;-86
2023/12/24 04:00:37;;;;;;;0.20;0.20;;;3.40;99.90;;;;;;5036134;28;20175;-86
2023/12/24 04:03:03;;;;;;;0.20;0.20;;;3.40;99.90;;;;;;5030579;28;20318;-86
2023/12/24 04:05:28;;;;;;;0.20;0.20;;;3.50;99.90;;;;;;5033304;28;20206;-87
2023/12/24 04:07:54;;;;;;;0.20;0.20;;;3.70;99.90;;;;;;5025955;28;20210;-86
2023/12/24 04:10:19;;;;;;;0.20;0.20;;;3.80;99.90;;;;;;5038428;28;20229;-86
2023/12/24 04:12:45;;;;;;;0.20;0.20;;;4.00;99.90;;;;;;5018637;28;20188;-85
2023/12/24 04:15:10;;;;;;;0.10;0.10;;;4.20;99.90;;;;;;5032671;28;20244;-86
2023/12/24 04:17:36;;;;;;;0.20;0.20;;;4.30;99.90;;;;;;5032528;28;20298;-87
2023/12/24 04:20:04;;;;;;;0.20;0.20;;;4.40;99.90;;;;;;5030711;28;20302;-86
2023/12/24 04:22:30;;;;;;;0.20;0.20;;;4.50;99.90;;;;;;5042260;28;20182;-87
2023/12/24 04:24:56;;;;;;;0.20;0.20;;;4.80;99.90;;;;;;5011614;28;20489;-86
2023/12/24 04:27:22;;;;;;;0.13;0.13;;;5.30;99.90;;;;;;5041874;28;20422;-87
2023/12/24 04:29:47;;;;;;;0.10;0.10;;;5.60;99.90;;;;;;5031872;28;20486;-87
2023/12/24 04:32:13;;;;;;;0.10;0.10;;;5.90;99.90;;;;;;5019442;28;20193;-86
2023/12/24 04:34:39;;;;;;;0.10;0.10;;;5.90;99.90;;;;;;5049286;28;20186;-86
2023/12/24 04:37:04;;;;;;;0.10;0.10;;;6.30;99.90;;;;;;5028218;28;20598;-84
2023/12/24 04:39:30;;;;;;;0.20;0.20;;;6.40;99.90;;;;;;5032196;28;20473;-83
2023/12/24 04:41:56;;;;;;;0.10;0.10;;;6.40;99.90;;;;;;5044979;28;20194;-83
2023/12/24 04:44:21;;;;;;;0.10;0.10;;;6.20;99.90;;;;;;5050342;28;20218;-84
2023/12/24 04:46:48;;;;;;;0.10;0.10;;;6.30;99.90;;;;;;5022976;28;20218;-84
2023/12/24 04:49:13;;;;;;;0.10;0.10;;;6.40;99.90;;;;;;5049322;28;20194;-83
2023/12/24 04:51:40;;;;;;;0.10;0.10;;;6.30;99.90;;;;;;5048458;28;20421;-86
2023/12/24 04:54:06;;;;;;;0.20;0.20;;;6.40;99.90;;;;;;5041269;28;20284;-84
2023/12/24 04:56:32;;;;;;;0.20;0.20;;;6.40;99.90;;;;;;5029205;28;20570;-83
2023/12/24 04:58:59;;;;;;;0.10;0.10;;;6.40;99.90;;;;;;5031169;28;20418;-84
2023/12/24 05:01:25;;;;;;;0.20;0.20;;;6.70;99.90;;;;;;5029477;28;20572;-87
2023/12/24 05:03:50;;;;;;;0.20;0.20;;;6.60;99.90;;;;;;5031676;28;20961;-84
2023/12/24 05:06:16;;;;;;;0.20;0.20;;;6.80;99.90;;;;;;5033493;28;20438;-87
2023/12/24 05:08:41;;;;;;;0.10;0.10;;;6.90;99.90;;;;;;5037859;28;20637;-85
2023/12/24 05:11:08;;;;;;;0.20;0.20;;;6.80;99.90;;;;;;5028771;28;20193;-87
2023/12/24 05:13:35;;;;;;;0.20;0.20;;;6.90;99.90;;;;;;5009474;28;20180;-86
2023/12/24 05:16:02;;;;;;;0.20;0.20;;;6.90;99.90;;;;;;5036559;28;20436;-86
2023/12/24 05:18:27;;;;;;;0.20;0.20;;;7.00;99.90;;;;;;5033233;28;20500;-85
2023/12/24 05:20:53;;;;;;;0.20;0.20;;;7.00;99.90;;;;;;5029567;28;20473;-84
2023/12/24 05:23:21;;;;;;;0.20;0.20;;;7.00;99.90;;;;;;5030266;28;20186;-84
2023/12/24 05:25:46;;;;;;;0.20;0.20;;;6.90;99.90;;;;;;5018138;28;20220;-85
2023/12/24 05:28:13;;;;;;;0.20;0.20;;;6.90;99.90;;;;;;5042288;28;20425;-86
2023/12/24 05:30:38;;;;;;;0.20;0.20;;;6.90;99.90;;;;;;5043561;28;20929;-83
2023/12/24 05:33:04;;;;;;;0.20;0.20;;;6.90;99.90;;;;;;5043453;28;20430;-83
2023/12/24 05:35:30;;;;;;;0.20;0.20;;;6.90;99.90;;;;;;5030285;28;20196;-84
2023/12/24 05:37:55;;;;;;;0.20;0.20;;;6.90;99.90;;;;;;5013590;28;20198;-84
2023/12/24 05:40:21;;;;;;;0.20;0.20;;;7.00;99.90;;;;;;5045486;28;20305;-83
2023/12/24 05:42:46;;;;;;;0.10;0.10;;;7.00;99.90;;;;;;5043633;28;20266;-83
2023/12/24 05:45:12;;;;;;;0.20;0.20;;;7.00;99.90;;;;;;5040439;28;20587;-84
2023/12/24 05:47:38;;;;;;;0.20;0.20;;;7.00;99.90;;;;;;5027598;28;20296;-84
2023/12/24 05:50:05;;;;;;;0.20;0.20;;;6.90;99.90;;;;;;5034251;28;20199;-83
2023/12/24 05:52:31;;;;;;;0.20;0.20;;;7.00;99.90;;;;;;5038570;28;20966;-83
2023/12/24 05:54:57;;;;;;;0.13;0.13;;;6.90;99.90;;;;;;5022136;28;20528;-82
2023/12/24 05:57:22;;;;;;;0.20;0.20;;;7.10;99.90;;;;;;5031561;28;20191;-84
2023/12/24 05:59:48;;;;;;;0.20;0.20;;;7.00;99.90;;;;;;5037816;28;20745;-86
2023/12/24 06:02:13;;;;;;;0.20;0.20;;;7.00;99.90;;;;;;5022991;28;20201;-83
2023/12/24 06:04:39;;;;;;;0.20;0.20;;;7.00;99.90;;;;;;5022194;28;20285;-85
2023/12/24 06:07:05;;;;;;;0.20;0.20;;;7.00;99.90;;;;;;5036713;28;20193;-84
2023/12/24 06:09:31;;;;;;;0.20;0.20;;;7.10;99.90;;;;;;5043379;28;20187;-83
2023/12/24 06:11:57;;;;;;;0.20;0.20;;;7.00;99.90;;;;;;5030190;28;20511;-84
2023/12/24 06:14:22;;;;;;;0.20;0.20;;;7.00;99.90;;;;;;5034406;28;20566;-82
2023/12/24 06:16:48;;;;;;;0.20;0.20;;;7.10;99.90;;;;;;5033623;28;20267;-85
2023/12/24 06:19:13;;;;;;;0.20;0.20;;;7.10;99.90;;;;;;5050269;28;20221;-83
2023/12/24 06:21:39;;;;;;;0.30;0.30;;;7.00;99.90;;;;;;5023566;28;20252;-83
2023/12/24 06:24:05;;;;;;;0.30;0.30;;;7.10;99.90;;;;;;5016155;28;20266;-85
2023/12/24 06:26:32;;;;;;;0.40;0.40;;;7.10;99.90;;;;;;5041803;28;20189;-85
2023/12/24 06:28:58;;;;;;;0.40;0.40;;;7.20;99.90;;;;;;5034070;28;20655;-82
2023/12/24 06:31:24;;;;;;;0.40;0.40;;;7.20;99.90;;;;;;5024172;28;20449;-83
2023/12/24 06:33:50;;;;;;;0.50;0.50;;;7.20;99.90;;;;;;5016914;28;20251;-82
2023/12/24 06:36:16;;;;;;;0.47;0.47;;;7.30;99.90;;;;;;5028933;28;20195;-82
2023/12/24 06:38:41;;;;;;;0.40;0.40;;;7.30;99.90;;;;;;5002622;28;20858;-85
2023/12/24 06:41:07;;;;;;;0.50;0.50;;;7.30;99.90;;;;;;5038445;28;20190;-86
2023/12/24 06:43:33;;;;;;;0.50;0.50;;;7.30;99.90;;;;;;5030551;28;20210;-87
2023/12/24 06:45:58;;;;;;;0.50;0.50;;;7.30;99.90;;;;;;5024892;28;20286;-83
2023/12/24 06:48:24;;;;;;;0.50;0.50;;;7.20;99.90;;;;;;5026697;28;20278;-85
2023/12/24 06:50:49;;;;;;;0.50;0.50;;;7.30;99.90;;;;;;5025605;28;20188;-86
2023/12/24 06:53:15;;;;;;;0.50;0.50;;;7.40;99.90;;;;;;5027422;28;20241;-86
2023/12/24 06:55:41;;;;;;;0.50;0.50;;;7.40;99.90;;;;;;5020185;28;20239;-85
2023/12/24 06:58:06;;;;;;;0.50;0.50;;;7.40;99.90;;;;;;5010535;28;20836;-86
2023/12/24 07:00:32;;;;;;;0.50;0.50;;;7.30;99.90;;;;;;5013601;28;20190;-84
2023/12/24 07:02:58;;;;;;;0.60;0.60;;;7.50;99.90;;;;;;5025625;28;20551;-83
2023/12/24 07:05:23;;;;;;;0.50;0.50;;;7.40;99.90;;;;;;5009107;28;20214;-83
2023/12/24 07:07:49;;;;;;;0.50;0.50;;;7.40;99.90;;;;;;5009578;28;20175;-85
2023/12/24 07:10:15;;;;;;;0.50;0.50;;;7.50;99.90;;;;;;5023136;28;20184;-82
2023/12/24 07:12:40;;;;;;;0.50;0.50;;;7.40;99.90;;;;;;5018098;28;20302;-83
2023/12/24 07:15:07;;;;;;;0.90;0.60;;;7.40;99.90;;;;;;5029555;28;20189;-82
2023/12/24 07:17:33;;;;;;;0.60;0.50;;;7.50;99.90;;;;;;5019929;28;20181;-82
2023/12/24 07:19:59;;;;;;;0.60;0.60;;;7.50;99.90;;;;;;5008977;28;20617;-83
2023/12/24 07:22:25;;;;;;;1.00;0.80;;;7.50;99.90;;;;;;5012581;28;20278;-83
2023/12/24 07:24:51;;;;;;;0.70;0.60;;;7.50;99.90;;;;;;5029131;28;20562;-83
2023/12/24 07:27:16;;;;;;;0.70;0.60;;;7.50;99.90;;;;;;5026929;28;20176;-84
2023/12/24 07:29:42;;;;;;;0.70;0.57;;;7.60;99.90;;;;;;5019676;28;20167;-84
2023/12/24 07:32:08;;;;;;;0.70;0.60;;;7.60;99.90;;;;;;5014813;28;20560;-85
2023/12/24 07:34:33;;;;;;;0.70;0.50;;;7.60;99.90;;;;;;5028801;28;20302;-85
2023/12/24 07:36:59;;;;;;;0.73;0.60;;;7.60;99.90;;;;;;5024452;28;20215;-85
2023/12/24 07:39:25;;;;;;;0.70;0.50;;;7.70;99.90;;;;;;5025832;28;20187;-85
2023/12/24 07:41:51;;;;;;;0.70;0.60;;;7.70;99.90;;;;;;5025415;28;20996;-86
2023/12/24 07:44:17;;;;;;;0.80;0.60;;;7.80;99.90;;;;;;5018384;28;20212;-85
2023/12/24 07:46:44;;;;;;;0.80;0.70;;;7.80;99.90;;;;;;5005984;28;20176;-85
2023/12/24 07:49:10;;;;;;;0.80;0.57;;;7.90;99.90;;;;;;5022671;28;20453;-84
2023/12/24 07:51:35;;;;;;;0.80;0.50;;;7.80;99.90;;;;;;5008193;28;20446;-83
2023/12/24 07:54:03;;;;;;;1.30;0.90;;;7.80;99.90;;;;;;5006836;28;20644;-82
2023/12/24 07:56:29;;;;;;;0.80;0.60;;;7.70;99.90;;;;;;5017684;28;20191;-83
2023/12/24 07:58:55;;;;;;;0.80;0.60;;;7.80;99.90;;;;;;5001209;28;20529;-81
2023/12/24 08:01:21;;;;;;;0.90;0.70;;;7.80;99.90;;;;;;5003741;28;20979;-82
2023/12/24 08:03:46;;;;;;;0.80;0.50;;;7.80;99.90;;;;;;5008980;28;20226;-82
2023/12/24 08:06:12;;;;;;;0.83;0.60;;;7.80;99.90;;;;;;4999233;28;20201;-83
2023/12/24 08:08:38;;;;;;;0.90;0.60;;;7.90;99.90;;;;;;5025362;28;20171;-83
2023/12/24 08:11:03;;;;;;;2.70;2.00;;;7.80;99.90;;;;;;5030652;28;20569;-83
2023/12/24 08:13:29;;;;;;;0.90;0.50;;;7.90;99.90;;;;;;5019822;28;20271;-81
2023/12/24 08:15:54;;;;;;;0.90;0.60;;;7.90;99.90;;;;;;5027729;28;20184;-83
2023/12/24 08:18:20;;;;;;;0.90;0.60;;;7.90;99.90;;;;;;5019686;28;20203;-82
2023/12/24 08:20:45;;;;;;;0.90;0.67;;;7.90;99.90;;;;;;5005892;28;20742;-81
2023/12/24 08:23:11;;;;;;;0.90;0.60;;;7.80;99.90;;;;;;5022912;28;20181;-80
2023/12/24 08:25:37;;;;;;;0.90;0.60;;;7.90;99.90;;;;;;5027496;28;20250;-85
2023/12/24 08:28:05;;;;;;;0.90;0.60;;;8.00;99.90;;;;;;5047264;28;20183;-84
2023/12/24 08:30:30;;;;;;;1.30;1.20;;;7.90;99.90;;;;;;5044326;28;20175;-83
2023/12/24 08:32:56;;;;;;;0.90;0.70;;;7.90;99.90;;;;;;5014278;28;20471;-83
2023/12/24 08:35:22;;;;;;;0.90;0.60;;;8.00;99.90;;;;;;5025960;28;20180;-83
2023/12/24 08:37:47;;;;;;;0.90;0.50;;;8.00;99.90;;;;;;5031910;28;20230;-83
2023/12/24 08:40:13;;;;;;;0.90;0.60;;;8.00;99.90;;;;;;5014626;28;20550;-83
2023/12/24 08:42:38;;;;;;;0.90;0.50;;;8.00;99.90;;;;;;5023862;28;20189;-83
2023/12/24 08:45:04;;;;;;;0.90;0.60;;;8.00;99.90;;;;;;5006457;28;20315;-82
2023/12/24 08:47:30;;;;;;;0.97;0.73;;;8.00;99.90;;;;;;5025164;28;20187;-84
2023/12/24 08:49:57;;;;;;;1.63;1.00;;;8.00;99.90;;;;;;5022609;28;20438;-81
2023/12/24 08:52:23;;;;;;;1.00;0.60;;;8.10;99.90;;;;;;5029542;28;20640;-83
2023/12/24 08:54:48;;;;;;;0.97;0.60;;;8.10;99.90;;;;;;5027498;28;20485;-82
2023/12/24 08:57:14;;;;;;;1.20;0.83;;;8.10;99.90;;;;;;5033266;28;20179;-81
2023/12/24 08:59:39;;;;;;;1.00;0.60;;;8.10;99.90;;;;;;5031378;28;20179;-84
2023/12/24 09:02:05;;;;;;;1.00;0.60;;;8.10;99.90;;;;;;5031335;28;20627;-85
2023/12/24 09:04:31;;;;;;;1.00;0.60;;;8.10;99.90;;;;;;5009491;28;20219;-81
2023/12/24 09:06:57;;;;;;;1.20;1.10;;;8.10;99.90;;;;;;5006794;28;20509;-80
2023/12/24 09:09:23;;;;;;;1.00;0.60;;;8.10;99.90;;;;;;5031887;28;20183;-81
2023/12/24 09:11:49;;;;;;;1.00;0.60;;;8.10;99.90;;;;;;5003592;28;20175;-81
2023/12/24 09:14:15;;;;;;;1.00;0.60;;;8.10;99.90;;;;;;5019547;28;20474;-81
2023/12/24 09:16:40;;;;;;;1.00;0.60;;;8.10;99.90;;;;;;5021421;28;20486;-81
2023/12/24 09:19:06;;;;;;;1.07;0.60;;;8.20;99.90;;;;;;5028225;28;20242;-81
2023/12/24 09:21:31;;;;;;;1.00;0.60;;;8.20;99.90;;;;;;5026380;28;20270;-81
2023/12/24 09:23:58;;;;;;;1.10;0.80;;;8.20;99.90;;;;;;5021696;28;20647;-83
2023/12/24 09:26:24;;;;;;;1.10;0.60;;;8.20;99.90;;;;;;5025004;28;20173;-83
2023/12/24 09:28:50;;;;;;;1.10;0.60;;;8.30;99.90;;;;;;5028793;28;21034;-80
2023/12/24 09:31:15;;;;;;;1.40;0.63;;;8.30;99.90;;;;;;5030727;28;20179;-80
2023/12/24 09:33:41;;;;;;;1.03;0.60;;;8.30;99.90;;;;;;5031589;28;20175;-81
2023/12/24 09:36:07;;;;;;;1.10;0.60;;;8.30;99.90;;;;;;5031744;28;20195;-80
2023/12/24 09:38:35;;;;;;;1.10;0.60;;;8.30;99.90;;;;;;5029579;28;20179;-84
2023/12/24 09:41:01;;;;;;;1.10;0.80;;;8.30;99.90;;;;;;5027357;28;20449;-84
2023/12/24 09:43:30;;;;;;;1.47;0.93;;;8.30;99.90;;;;;;5014641;28;20438;-80
2023/12/24 09:45:56;;;;;;;1.00;0.60;;;8.30;99.90;;;;;;5017515;28;20191;-83
2023/12/24 09:48:22;;;;;;;1.20;0.83;;;8.40;99.90;;;;;;5015414;28;20446;-81
2023/12/24 09:50:48;;;;;;;1.40;1.10;;;8.40;99.90;;;;;;5023280;28;20450;-81
2023/12/24 09:53:14;;;;;;;1.10;0.60;;;8.40;99.90;;;;;;5020190;28;20202;-80
2023/12/24 09:55:40;;;;;;;1.10;0.60;;;8.40;99.90;;;;;;5003685;28;20651;-82
2023/12/24 09:58:05;;;;;;;1.10;0.70;;;8.40;99.90;;;;;;5021108;28;20519;-83
2023/12/24 10:00:31;;;;;;;1.30;1.10;;;8.50;99.90;;;;;;5020940;28;20180;-81
2023/12/24 10:02:56;;;;;;;1.10;0.83;;;8.40;99.90;;;;;;5006016;28;20215;-84
2023/12/24 10:05:22;;;;;;;1.57;0.90;;;8.50;99.90;;;;;;5021735;28;20215;-83
2023/12/24 10:07:47;;;;;;;1.20;0.90;;;8.50;99.90;;;;;;5017840;28;20670;-83
2023/12/24 10:10:17;;;;;;;1.00;0.60;;;8.50;99.90;;;;;;5019922;28;20188;-81
2023/12/24 10:12:43;;;;;;;1.00;0.60;;;8.50;99.90;;;;;;5018302;28;20239;-81
2023/12/24 10:15:09;;;;;;;8.83;1.00;;;8.50;99.90;;;;;;5011475;28;20431;-80
2023/12/24 10:17:35;;;;;;;1.00;0.90;;;8.50;99.90;;;;;;5028700;28;20430;-82
2023/12/24 10:20:06;;;;;;;1.30;1.03;;;8.60;99.90;;;;;;5007139;28;20208;-82
2023/12/24 10:22:33;;;;;;;1.57;1.27;;;8.60;99.90;;;;;;5027104;28;20489;-82
2023/12/24 10:25:03;;;;;;;1.30;0.80;;;8.50;99.90;;;;;;5022931;28;20481;-84
2023/12/24 10:27:28;;;;;;;1.10;0.90;;;8.60;99.90;;;;;;5006078;28;20687;-82
2023/12/24 10:30:06;;;;;;;5.60;2.43;;;8.60;99.90;;;;;;5028245;28;21013;-82
2023/12/24 10:32:32;;;;;;;3.00;1.67;;;8.60;99.90;;;;;;5021952;28;20187;-82
2023/12/24 10:34:57;;;;;;;2.20;1.57;;;8.60;99.90;;;;;;5025765;28;20446;-82
2023/12/24 10:37:29;;;;;;;2.80;2.60;;;8.60;99.90;;;;;;5017934;28;20192;-83
2023/12/24 10:40:04;;;;;;;2.93;1.43;;;8.60;99.90;;;;;;5006112;28;20193;-83
2023/12/24 10:42:30;;;;;;;32.37;4.47;;;8.60;99.90;;;;;;5013394;28;20438;-84
2023/12/24 10:44:55;;;;;;;10.10;3.00;;;8.60;99.90;;;;;;5012947;28;20486;-80
2023/12/24 10:47:21;;;;;;;1.60;1.50;;;8.60;99.90;;;;;;5006795;28;20177;-83
2023/12/24 10:49:46;;;;;;;2.60;2.13;;;8.70;99.90;;;;;;5001616;28;20530;-83
2023/12/24 10:52:12;;;;;;;1.10;0.97;;;8.70;99.90;;;;;;5026793;28;20180;-82
2023/12/24 10:54:40;;;;;;;1.77;1.67;;;8.70;99.90;;;;;;5022808;28;20334;-82
2023/12/24 10:57:16;;;;;;;8.23;3.40;;;8.70;99.90;;;;;;5013498;28;20933;-82
2023/12/24 11:00:14;;;;;;;2.10;1.53;;;8.70;99.90;;;;;;5009450;28;20477;-83
2023/12/24 11:02:45;;;;;;;1.80;1.70;;;8.70;99.90;;;;;;5042179;28;20519;-82
2023/12/24 11:05:11;;;;;;;1.20;1.10;;;8.70;99.90;;;;;;5024296;28;20568;-85
2023/12/24 11:07:47;;;;;;;1.07;0.60;;;8.80;99.90;;;;;;5026402;28;20526;-82
2023/12/24 11:10:54;;;;;;;2.43;1.33;;;8.80;99.90;;;;;;5011641;28;20534;-82
2023/12/24 11:13:43;;;;;;;1.63;1.53;;;8.90;99.90;;;;;;4967466;28;20906;-82
2023/12/24 11:16:09;;;;;;;0.90;0.80;;;8.80;99.90;;;;;;4952717;28;20453;-79
2023/12/24 11:18:48;;;;;;;3.33;3.13;;;8.90;99.90;;;;;;5008075;28;20446;-82
2023/12/24 11:21:16;;;;;;;1.07;0.80;;;9.00;99.90;;;;;;5027071;28;21016;-81
2023/12/24 11:24:02;;;;;;;1.53;0.87;;;8.90;99.90;;;;;;5028099;28;20453;-82
2023/12/24 11:26:31;;;;;;;2.20;1.23;;;9.00;99.90;;;;;;5025053;28;20934;-81
2023/12/24 11:28:58;;;;;;;1.00;0.90;;;9.00;99.90;;;;;;5030063;28;20358;-83
2023/12/24 11:31:27;;;;;;;1.43;1.33;;;9.00;99.90;;;;;;5027849;28;20933;-82
2023/12/24 11:33:54;;;;;;;1.40;1.20;;;9.00;99.90;;;;;;5029587;28;20426;-83
2023/12/24 11:36:24;;;;;;;1.93;1.00;;;9.00;99.90;;;;;;5030692;28;20435;-83
2023/12/24 11:38:58;;;;;;;2.67;2.47;;;9.00;99.90;;;;;;5027077;28;20441;-83
2023/12/24 11:41:24;;;;;;;3.43;2.17;;;9.10;99.90;;;;;;5026926;28;20431;-82
2023/12/24 11:44:00;;;;;;;2.00;1.87;;;9.10;99.90;;;;;;5029236;28;20812;-83
2023/12/24 11:46:28;;;;;;;6.13;1.97;;;9.10;99.90;;;;;;5029394;28;20430;-82
2023/12/24 11:48:55;;;;;;;1.40;0.73;;;9.10;99.90;;;;;;5031580;28;20424;-81
2023/12/24 11:51:26;;;;;;;2.73;2.53;;;9.20;99.90;;;;;;5030152;28;20426;-81
2023/12/24 11:54:03;;;;;;;1.30;1.20;;;9.20;99.90;;;;;;5027887;28;20513;-81
2023/12/24 11:56:30;;;;;;;1.43;0.87;;;9.20;99.90;;;;;;5029093;28;20441;-81
2023/12/24 11:58:58;;;;;;;0.90;0.60;;;9.20;99.90;;;;;;5026163;28;20438;-80
2023/12/24 12:01:26;;;;;;;2.90;2.57;;;9.20;99.90;;;;;;5008941;28;21263;-81
2023/12/24 12:04:00;;;;;;;1.10;1.10;;;9.30;99.90;;;;;;4997471;28;20959;-81
2023/12/24 12:06:26;;;;;;;2.30;2.30;;;9.20;99.90;;;;;;5022613;28;20442;-80
2023/12/24 12:08:53;;;;;;;1.10;1.10;;;9.20;99.90;;;;;;5021183;28;20444;-80
2023/12/24 12:11:18;;;;;;;1.10;1.00;;;9.20;99.90;;;;;;5029926;28;20526;-81
2023/12/24 12:13:44;;;;;;;5.70;1.53;;;9.20;99.90;;;;;;5022517;28;20450;-80
2023/12/24 12:16:10;;;;;;;1.10;1.00;;;9.20;99.90;;;;;;5028950;28;20473;-81
2023/12/24 12:18:36;;;;;;;0.83;0.70;;;9.20;99.90;;;;;;5038090;28;20433;-81
2023/12/24 12:21:02;;;;;;;1.20;1.10;;;9.30;99.90;;;;;;5045659;28;20222;-81
2023/12/24 12:23:27;;;;;;;0.70;0.60;;;9.30;99.90;;;;;;5032018;28;20647;-80
2023/12/24 12:25:53;;;;;;;1.67;1.57;;;9.30;99.90;;;;;;5032874;28;20463;-79
2023/12/24 12:28:19;;;;;;;0.70;0.60;;;9.20;99.90;;;;;;5041154;28;20570;-80
2023/12/24 12:30:45;;;;;;;0.73;0.60;;;9.30;99.90;;;;;;5027723;28;20577;-80
2023/12/24 12:33:12;;;;;;;0.80;0.50;;;9.30;99.90;;;;;;5022766;28;20250;-79
2023/12/24 12:35:38;;;;;;;0.93;0.70;;;9.30;99.90;;;;;;5043408;28;20417;-80
2023/12/24 12:38:03;;;;;;;2.47;1.70;;;9.30;99.90;;;;;;5027417;28;21249;-80
2023/12/24 12:40:29;;;;;;;1.10;0.73;;;9.30;99.90;;;;;;5045202;28;23346;-80
2023/12/24 12:42:55;;;;;;;3.03;2.40;;;9.40;99.90;;;;;;5050784;28;20260;-81
2023/12/24 12:45:21;;;;;;;1.00;0.63;;;9.40;99.90;;;;;;5036115;28;20476;-80
2023/12/24 12:47:46;;;;;;;0.90;0.50;;;9.40;99.90;;;;;;5034637;28;20857;-81
2023/12/24 12:50:12;;;;;;;1.00;0.80;;;9.40;99.90;;;;;;5035147;28;20537;-80
2023/12/24 12:52:38;;;;;;;0.93;0.60;;;9.40;99.90;;;;;;5047672;28;20229;-79
2023/12/24 12:55:08;;;;;;;1.47;0.87;;;9.40;99.90;;;;;;5015645;28;20199;-80